createdAt,value
2022-08-20T00:02:30.062Z,27.66
2022-08-20T00:07:35.295Z,27.80
2022-08-20T00:12:44.161Z,27.88
2022-08-20T00:17:48.106Z,27.79
2022-08-20T00:22:53.398Z,27.52
2022-08-20T00:27:57.648Z,27.36
2022-08-20T00:33:04.438Z,27.34
2022-08-20T00:38:09.946Z,27.21
2022-08-20T00:43:35.562Z,27.15
2022-08-20T00:48:42.598Z,26.92
2022-08-20T00:53:47.847Z,26.97
2022-08-20T00:58:52.901Z,26.93
2022-08-20T01:03:56.669Z,26.79
2022-08-20T01:09:02.667Z,26.67
2022-08-20T01:14:11.022Z,26.53
2022-08-20T01:19:29.708Z,26.28
2022-08-20T01:24:39.270Z,26.04
2022-08-20T01:29:44.867Z,25.95
2022-08-20T01:34:48.449Z,25.87
2022-08-20T01:39:52.067Z,25.88
2022-08-20T01:44:58.032Z,25.77
2022-08-20T01:50:15.640Z,25.59
2022-08-20T01:55:22.268Z,25.42
2022-08-20T02:00:28.216Z,25.40
2022-08-20T02:05:32.273Z,25.29
2022-08-20T02:10:36.020Z,25.23
2022-08-20T02:15:43.170Z,25.07
2022-08-20T02:20:47.766Z,24.98
2022-08-20T02:25:51.401Z,24.82
2022-08-20T02:30:56.710Z,24.60
2022-08-20T02:36:00.342Z,24.42
2022-08-20T02:41:03.990Z,24.23
2022-08-20T02:46:09.514Z,23.98
2022-08-20T02:51:13.237Z,23.70
2022-08-20T02:56:17.039Z,23.64
2022-08-20T03:01:22.301Z,23.32
2022-08-20T03:06:26.303Z,22.99
2022-08-20T03:11:29.997Z,22.89
2022-08-20T03:16:35.264Z,22.91
2022-08-20T03:21:38.861Z,22.86
2022-08-20T03:26:42.602Z,22.66
2022-08-20T03:31:47.894Z,22.68
2022-08-20T03:36:51.458Z,22.46
2022-08-20T03:41:55.077Z,22.28
2022-08-20T03:47:00.290Z,22.14
2022-08-20T03:52:04.317Z,21.88
2022-08-20T03:57:13.257Z,21.76
2022-08-20T04:02:18.689Z,21.64
2022-08-20T04:07:24.667Z,21.74
2022-08-20T04:12:28.614Z,21.68
2022-08-20T04:17:33.851Z,21.33
2022-08-20T04:22:36.701Z,21.11
2022-08-20T04:27:40.853Z,20.78
2022-08-20T04:32:46.087Z,20.68
2022-08-20T04:37:49.058Z,20.51
2022-08-20T04:42:53.273Z,20.50
2022-08-20T04:48:03.859Z,20.44
2022-08-20T04:53:11.135Z,20.25
2022-08-20T04:58:17.752Z,20.17
2022-08-20T05:03:23.626Z,20.15
2022-08-20T05:08:28.599Z,20.08
2022-08-20T05:13:32.274Z,20.04
2022-08-20T05:18:37.523Z,19.88
2022-08-20T05:23:41.311Z,19.83
2022-08-20T05:28:47.218Z,19.82
2022-08-20T05:34:02.999Z,19.80
2022-08-20T05:39:06.662Z,19.70
2022-08-20T05:44:11.422Z,19.51
2022-08-20T05:49:18.921Z,19.39
2022-08-20T05:54:23.105Z,19.36
2022-08-20T05:59:27.118Z,19.27
2022-08-20T06:04:32.467Z,19.16
2022-08-20T06:09:36.165Z,19.05
2022-08-20T06:14:39.863Z,19.00
2022-08-20T06:19:46.925Z,18.83
2022-08-20T06:24:50.641Z,18.83
2022-08-20T06:29:54.900Z,18.82
2022-08-20T06:35:01.067Z,18.76
2022-08-20T06:40:07.621Z,18.58
2022-08-20T06:45:12.157Z,18.44
2022-08-20T06:50:19.902Z,18.54
2022-08-20T06:55:23.949Z,18.53
2022-08-20T07:00:28.933Z,18.46
2022-08-20T07:05:35.976Z,18.21
2022-08-20T07:10:39.865Z,18.09
2022-08-20T07:15:44.170Z,18.02
2022-08-20T07:20:49.862Z,17.82
2022-08-20T07:25:54.613Z,17.90
2022-08-20T07:30:58.519Z,17.90
2022-08-20T07:36:17.665Z,17.95
2022-08-20T07:41:21.597Z,17.87
2022-08-20T07:46:25.198Z,17.67
2022-08-20T07:51:36.552Z,17.69
2022-08-20T07:56:40.158Z,17.72
2022-08-20T08:01:44.037Z,17.54
2022-08-20T08:06:49.966Z,17.30
2022-08-20T08:11:53.588Z,17.47
2022-08-20T08:17:00.751Z,17.44
2022-08-20T08:22:07.473Z,17.29
2022-08-20T08:27:11.699Z,17.15
2022-08-20T08:32:15.269Z,17.21
2022-08-20T08:37:20.545Z,17.26
2022-08-20T08:42:30.995Z,17.17
2022-08-20T08:47:39.942Z,17.11
2022-08-20T08:52:54.998Z,17.20
2022-08-20T08:58:16.487Z,17.14
2022-08-20T09:03:27.221Z,16.99
2022-08-20T09:08:36.631Z,17.00
2022-08-20T09:13:41.148Z,16.98
2022-08-20T09:18:44.995Z,16.81
2022-08-20T09:23:50.218Z,16.83
2022-08-20T09:28:53.788Z,16.80
2022-08-20T09:33:57.351Z,16.75
2022-08-20T09:39:03.357Z,16.66
2022-08-20T09:44:07.065Z,16.47
2022-08-20T09:49:10.686Z,16.50
2022-08-20T09:54:16.120Z,16.54
2022-08-20T09:59:19.727Z,16.52
2022-08-20T10:04:23.369Z,16.46
2022-08-20T10:09:28.658Z,16.48
2022-08-20T10:14:32.413Z,16.42
2022-08-20T10:19:36.118Z,16.42
2022-08-20T10:24:41.356Z,16.34
2022-08-20T10:29:47.021Z,16.26
2022-08-20T10:34:50.024Z,16.21
2022-08-20T10:39:56.097Z,16.23
2022-08-20T10:44:59.719Z,16.11
2022-08-20T10:50:05.582Z,16.03
2022-08-20T10:55:10.575Z,16.05
2022-08-20T11:00:17.121Z,16.00
2022-08-20T11:05:20.767Z,15.86
2022-08-20T11:10:27.716Z,15.91
2022-08-20T11:15:31.636Z,15.86
2022-08-20T11:20:36.311Z,15.75
2022-08-20T11:25:41.520Z,15.79
2022-08-20T11:30:45.120Z,15.71
2022-08-20T11:35:50.080Z,15.72
2022-08-20T11:40:55.494Z,15.73
2022-08-20T11:45:59.258Z,15.67
2022-08-20T11:51:02.812Z,15.70
2022-08-20T11:56:08.650Z,15.66
2022-08-20T12:01:17.307Z,15.68
2022-08-20T12:06:20.870Z,15.43
2022-08-20T12:11:27.108Z,15.42
2022-08-20T12:16:30.664Z,15.39
2022-08-20T12:21:35.101Z,15.33
2022-08-20T12:26:40.377Z,15.19
2022-08-20T12:31:43.974Z,15.22
2022-08-20T12:36:47.555Z,15.15
2022-08-20T12:41:52.762Z,15.14
2022-08-20T12:47:08.045Z,15.15
2022-08-20T12:52:11.640Z,15.11
2022-08-20T12:57:17.675Z,15.07
2022-08-20T13:02:21.316Z,15.17
2022-08-20T13:07:24.948Z,14.94
2022-08-20T13:12:30.215Z,14.96
2022-08-20T13:17:38.883Z,14.87
2022-08-20T13:22:43.899Z,14.83
2022-08-20T13:27:49.526Z,15.22
2022-08-20T13:32:53.299Z,15.01
2022-08-20T13:37:56.922Z,14.79
2022-08-20T13:43:06.169Z,14.72
2022-08-20T13:48:15.176Z,14.62
2022-08-20T13:53:19.037Z,14.54
2022-08-20T13:58:24.286Z,14.55
2022-08-20T14:03:27.843Z,14.61
2022-08-20T14:08:31.588Z,14.70
2022-08-20T14:13:36.804Z,14.73
2022-08-20T14:18:40.382Z,14.76
2022-08-20T14:23:44.033Z,14.88
2022-08-20T14:28:49.247Z,15.15
2022-08-20T14:33:52.826Z,15.57
2022-08-20T14:38:56.395Z,15.98
2022-08-20T14:44:01.602Z,16.57
2022-08-20T14:49:09.041Z,16.91
2022-08-20T14:54:12.643Z,17.02
2022-08-20T14:59:17.831Z,17.25
2022-08-20T15:04:21.406Z,17.68
2022-08-20T15:09:25.001Z,17.98
2022-08-20T15:14:30.293Z,18.43
2022-08-20T15:19:36.457Z,18.92
2022-08-20T15:24:40.112Z,19.57
2022-08-20T15:29:48.019Z,20.09
2022-08-20T15:34:51.612Z,20.74
2022-08-20T15:39:56.294Z,21.38
2022-08-20T15:45:01.565Z,22.09
2022-08-20T15:50:14.116Z,22.65
2022-08-20T15:55:18.245Z,23.34
2022-08-20T16:00:26.228Z,23.86
2022-08-20T16:05:40.058Z,24.30
2022-08-20T16:10:54.695Z,24.44
2022-08-20T16:16:05.980Z,24.81
2022-08-20T16:21:13.723Z,24.99
2022-08-20T16:26:33.036Z,25.57
2022-08-20T16:31:46.128Z,25.94
2022-08-20T16:37:03.538Z,26.30
2022-08-20T16:42:10.793Z,26.64
2022-08-20T16:47:19.478Z,26.82
2022-08-20T16:52:23.157Z,26.77
2022-08-20T16:57:28.733Z,26.72
2022-08-20T17:02:33.973Z,27.20
2022-08-20T17:07:50.726Z,27.26
2022-08-20T17:12:57.636Z,27.52
2022-08-20T17:18:20.938Z,27.52
2022-08-20T17:23:24.552Z,27.35
2022-08-20T17:28:30.824Z,27.43
2022-08-20T17:33:51.689Z,27.60
2022-08-20T17:38:57.602Z,27.69
2022-08-20T17:44:04.001Z,27.58
2022-08-20T17:49:15.107Z,27.76
2022-08-20T17:54:23.134Z,27.90
2022-08-20T17:59:59.556Z,28.09
2022-08-20T18:04:58.285Z,28.16
2022-08-20T18:10:07.197Z,28.23
2022-08-20T18:15:16.202Z,28.37
2022-08-20T18:20:50.711Z,28.52
2022-08-20T18:25:58.467Z,28.52
2022-08-20T18:31:04.110Z,28.66
2022-08-20T18:36:23.274Z,28.88
2022-08-20T18:41:30.462Z,28.86
2022-08-20T18:46:34.894Z,29.15
2022-08-20T18:51:41.798Z,29.46
2022-08-20T18:56:45.831Z,29.50
2022-08-20T19:01:50.787Z,29.62
2022-08-20T19:07:00.079Z,29.61
2022-08-20T19:12:24.310Z,29.75
2022-08-20T19:17:57.544Z,29.95
2022-08-20T19:23:07.558Z,30.02
2022-08-20T19:28:20.990Z,29.89
2022-08-20T19:33:29.885Z,30.34
2022-08-20T19:38:35.661Z,30.66
2022-08-20T19:43:44.000Z,30.73
2022-08-20T19:49:00.664Z,30.93
2022-08-20T19:54:06.011Z,30.97
2022-08-20T19:59:11.134Z,31.15
2022-08-20T20:04:18.400Z,30.94
2022-08-20T20:09:26.155Z,30.98
2022-08-20T20:14:31.804Z,31.20
2022-08-20T20:19:47.149Z,31.31
2022-08-20T20:25:05.307Z,31.33
2022-08-20T20:30:12.922Z,31.57
2022-08-20T20:35:27.586Z,31.55
2022-08-20T20:40:36.084Z,31.54
2022-08-20T20:45:42.771Z,31.80
2022-08-20T20:50:47.346Z,31.63
2022-08-20T20:55:58.142Z,31.63
2022-08-20T21:01:01.741Z,32.04
2022-08-20T21:06:05.587Z,32.12
2022-08-20T21:11:12.876Z,32.03
2022-08-20T21:16:17.046Z,32.17
2022-08-20T21:21:20.617Z,32.10
2022-08-20T21:26:26.853Z,32.27
2022-08-20T21:31:33.716Z,32.52
2022-08-20T21:36:37.548Z,32.67
2022-08-20T21:41:42.606Z,32.76
2022-08-20T21:46:46.552Z,32.77
2022-08-20T21:51:50.617Z,33.11
2022-08-20T21:56:59.062Z,33.10
2022-08-20T22:02:02.633Z,33.37
2022-08-20T22:07:07.478Z,33.46
2022-08-20T22:12:18.841Z,32.91
2022-08-20T22:17:22.494Z,32.80
2022-08-20T22:22:26.060Z,32.59
2022-08-20T22:27:31.472Z,32.42
2022-08-20T22:32:51.320Z,32.26
2022-08-20T22:37:55.925Z,31.80
2022-08-20T22:43:01.147Z,31.83
2022-08-20T22:48:06.326Z,31.91
2022-08-20T22:53:10.933Z,31.70
2022-08-20T22:58:16.348Z,31.63
2022-08-20T23:03:23.500Z,31.52
2022-08-20T23:08:43.967Z,31.39
2022-08-20T23:13:49.225Z,31.08
2022-08-20T23:18:53.016Z,30.83
2022-08-20T23:23:56.585Z,30.65
2022-08-20T23:29:01.851Z,30.48
2022-08-20T23:34:05.444Z,30.37
2022-08-20T23:39:09.140Z,30.22
2022-08-20T23:44:26.373Z,30.26
2022-08-20T23:49:31.937Z,29.87
2022-08-20T23:54:35.546Z,29.57
2022-08-20T23:59:40.770Z,29.39
